createdAt,value
2017-12-30T00:01:15.256Z,42.30
2017-12-30T00:03:43.119Z,44.10
2017-12-30T00:06:10.991Z,41.90
2017-12-30T00:08:39.665Z,41.70
2017-12-30T00:11:07.489Z,42.00
2017-12-30T00:13:35.325Z,41.50
2017-12-30T00:16:03.943Z,42.50
2017-12-30T00:18:31.889Z,42.50
2017-12-30T00:20:59.779Z,41.40
2017-12-30T00:23:27.604Z,43.50
2017-12-30T00:25:55.438Z,43.40
2017-12-30T00:28:23.292Z,42.00
2017-12-30T00:30:51.898Z,42.10
2017-12-30T00:33:19.709Z,42.00
2017-12-30T00:35:47.520Z,41.70
2017-12-30T00:38:16.140Z,43.10
2017-12-30T00:40:44.080Z,43.10
2017-12-30T00:43:11.949Z,43.40
2017-12-30T00:45:39.732Z,43.60
2017-12-30T00:48:07.540Z,44.20
2017-12-30T00:50:35.414Z,42.80
2017-12-30T00:53:03.292Z,43.10
2017-12-30T00:55:31.115Z,44.70
2017-12-30T00:57:58.958Z,41.50
2017-12-30T01:00:27.525Z,42.60
2017-12-30T01:02:55.417Z,42.50
2017-12-30T01:05:23.211Z,41.70
2017-12-30T01:07:51.064Z,43.20
2017-12-30T01:10:18.883Z,41.50
2017-12-30T01:12:46.694Z,41.00
2017-12-30T01:15:14.464Z,40.60
2017-12-30T01:17:42.310Z,40.70
2017-12-30T01:20:11.135Z,40.60
2017-12-30T01:22:38.960Z,39.90
2017-12-30T01:25:06.843Z,40.20
2017-12-30T01:27:35.419Z,39.50
2017-12-30T01:30:04.398Z,39.50
2017-12-30T01:32:32.293Z,39.90
2017-12-30T01:35:00.888Z,40.00
2017-12-30T01:37:28.719Z,40.00
2017-12-30T01:39:56.488Z,39.30
2017-12-30T01:42:25.220Z,40.40
2017-12-30T01:44:53.071Z,40.20
2017-12-30T01:47:20.886Z,37.80
2017-12-30T01:49:48.698Z,37.40
2017-12-30T01:52:16.554Z,37.60
2017-12-30T01:54:44.580Z,38.50
2017-12-30T01:57:13.018Z,38.00
2017-12-30T01:59:41.565Z,38.00
2017-12-30T02:02:09.414Z,37.90
2017-12-30T02:04:37.228Z,37.70
2017-12-30T02:07:05.764Z,37.40
2017-12-30T02:09:33.619Z,36.90
2017-12-30T02:12:01.502Z,38.60
2017-12-30T02:14:29.259Z,42.40
2017-12-30T02:16:57.108Z,38.30
2017-12-30T02:19:24.852Z,42.40
2017-12-30T02:21:52.703Z,35.30
2017-12-30T02:24:20.532Z,35.40
2017-12-30T02:26:48.403Z,36.00
2017-12-30T02:29:16.248Z,36.40
2017-12-30T02:31:44.076Z,37.20
2017-12-30T02:34:11.827Z,40.00
2017-12-30T02:36:39.640Z,35.70
2017-12-30T02:39:07.435Z,35.30
2017-12-30T02:41:35.293Z,39.20
2017-12-30T02:44:03.066Z,48.20
2017-12-30T02:46:30.930Z,34.60
2017-12-30T02:48:58.715Z,34.80
2017-12-30T02:51:26.531Z,38.30
2017-12-30T02:53:54.396Z,39.40
2017-12-30T02:56:22.180Z,35.30
2017-12-30T02:58:50.685Z,35.50
2017-12-30T03:01:18.560Z,35.50
2017-12-30T03:03:46.449Z,36.40
2017-12-30T03:06:14.297Z,36.10
2017-12-30T03:08:42.132Z,37.50
2017-12-30T03:11:10.031Z,36.50
2017-12-30T03:13:37.865Z,36.30
2017-12-30T03:16:05.654Z,36.70
2017-12-30T03:18:34.261Z,36.90
2017-12-30T03:21:02.100Z,36.80
2017-12-30T03:23:29.848Z,37.60
2017-12-30T03:25:57.678Z,38.20
2017-12-30T03:28:25.529Z,39.30
2017-12-30T03:30:53.340Z,39.80
2017-12-30T03:33:21.234Z,39.10
2017-12-30T03:35:49.142Z,38.70
2017-12-30T03:38:16.924Z,41.70
2017-12-30T03:40:44.714Z,39.10
2017-12-30T03:43:12.595Z,39.00
2017-12-30T03:45:40.448Z,39.60
2017-12-30T03:48:08.223Z,38.50
2017-12-30T03:50:35.985Z,39.20
2017-12-30T03:53:03.785Z,38.50
2017-12-30T03:55:31.555Z,38.60
2017-12-30T03:58:00.214Z,39.20
2017-12-30T04:00:29.722Z,39.00
2017-12-30T04:02:57.476Z,38.30
2017-12-30T04:05:25.325Z,38.10
2017-12-30T04:07:53.218Z,38.10
2017-12-30T04:10:21.070Z,38.50
2017-12-30T04:12:48.957Z,38.00
2017-12-30T04:15:17.559Z,39.40
2017-12-30T04:17:46.619Z,39.40
2017-12-30T04:20:14.459Z,37.40
2017-12-30T04:22:42.265Z,36.40
2017-12-30T04:25:10.141Z,37.50
2017-12-30T04:27:38.012Z,37.10
2017-12-30T04:30:06.629Z,38.30
2017-12-30T04:32:34.518Z,37.50
2017-12-30T04:35:02.410Z,36.40
2017-12-30T04:37:30.266Z,35.20
2017-12-30T04:39:58.085Z,36.90
2017-12-30T04:42:26.706Z,37.50
2017-12-30T04:44:54.564Z,37.80
2017-12-30T04:47:22.412Z,34.10
2017-12-30T04:49:50.283Z,35.70
2017-12-30T04:52:18.153Z,33.60
2017-12-30T04:54:45.966Z,35.30
2017-12-30T04:57:13.800Z,35.60
2017-12-30T04:59:42.352Z,34.30
2017-12-30T05:02:10.294Z,34.10
2017-12-30T05:04:38.173Z,32.70
2017-12-30T05:07:06.083Z,32.80
2017-12-30T05:09:33.928Z,32.10
2017-12-30T05:12:01.773Z,32.40
2017-12-30T05:14:29.583Z,32.00
2017-12-30T05:16:57.437Z,31.90
2017-12-30T05:19:25.282Z,32.00
2017-12-30T05:21:53.849Z,32.60
2017-12-30T05:24:21.715Z,32.20
2017-12-30T05:26:50.323Z,32.50
2017-12-30T05:29:18.892Z,33.50
2017-12-30T05:31:46.665Z,32.80
2017-12-30T05:34:14.507Z,33.30
2017-12-30T05:36:43.093Z,33.40
2017-12-30T05:39:11.636Z,34.00
2017-12-30T05:41:39.438Z,34.10
2017-12-30T05:44:08.006Z,33.90
2017-12-30T05:46:35.846Z,33.80
2017-12-30T05:49:03.682Z,34.60
2017-12-30T05:51:31.599Z,35.10
2017-12-30T05:53:59.395Z,35.40
2017-12-30T05:56:27.272Z,35.80
2017-12-30T05:58:55.997Z,36.90
2017-12-30T06:01:23.845Z,36.80
2017-12-30T06:03:51.705Z,36.70
2017-12-30T06:06:19.511Z,36.40
2017-12-30T06:08:47.290Z,36.80
2017-12-30T06:11:15.116Z,37.10
2017-12-30T06:13:42.904Z,37.40
2017-12-30T06:16:10.732Z,37.80
2017-12-30T06:18:38.534Z,38.10
2017-12-30T06:21:06.362Z,38.30
2017-12-30T06:23:34.155Z,39.50
2017-12-30T06:26:01.970Z,39.50
2017-12-30T06:28:30.551Z,39.80
2017-12-30T06:30:58.307Z,39.90
2017-12-30T06:33:26.083Z,39.70
2017-12-30T06:35:53.920Z,40.10
2017-12-30T06:38:22.352Z,40.00
2017-12-30T06:40:50.800Z,39.90
2017-12-30T06:43:19.202Z,40.00
2017-12-30T06:45:47.023Z,40.30
2017-12-30T06:48:14.848Z,40.20
2017-12-30T06:50:42.620Z,39.80
2017-12-30T06:53:10.431Z,39.50
2017-12-30T06:55:38.190Z,39.80
2017-12-30T06:58:05.958Z,40.10
2017-12-30T07:00:33.764Z,40.40
2017-12-30T07:03:01.646Z,40.80
2017-12-30T07:05:29.526Z,41.90
2017-12-30T07:07:57.352Z,41.50
2017-12-30T07:10:25.157Z,41.40
2017-12-30T07:12:53.187Z,46.60
2017-12-30T07:15:21.067Z,42.10
2017-12-30T07:17:48.862Z,41.70
2017-12-30T07:20:16.670Z,42.30
2017-12-30T07:22:44.535Z,42.50
2017-12-30T07:25:12.378Z,44.10
2017-12-30T07:27:40.274Z,41.80
2017-12-30T07:30:09.175Z,42.50
2017-12-30T07:32:36.992Z,42.10
2017-12-30T07:35:04.879Z,42.40
2017-12-30T07:37:32.729Z,41.70
2017-12-30T07:40:00.565Z,41.30
2017-12-30T07:42:28.384Z,41.60
2017-12-30T07:44:56.165Z,41.20
2017-12-30T07:47:23.987Z,43.00
2017-12-30T07:49:51.726Z,41.20
2017-12-30T07:52:19.530Z,42.10
2017-12-30T07:54:48.747Z,41.50
2017-12-30T07:57:16.564Z,41.20
2017-12-30T07:59:44.388Z,41.00
2017-12-30T08:02:12.190Z,40.50
2017-12-30T08:04:39.957Z,40.40
2017-12-30T08:07:07.796Z,62.00
2017-12-30T08:09:36.410Z,54.30
2017-12-30T08:12:04.268Z,54.20
2017-12-30T08:14:32.820Z,51.30
2017-12-30T08:17:00.654Z,51.20
2017-12-30T08:19:28.492Z,47.60
2017-12-30T08:21:56.351Z,46.80
2017-12-30T08:24:24.281Z,48.50
2017-12-30T08:26:52.088Z,49.40
2017-12-30T08:29:20.623Z,48.00
2017-12-30T08:31:48.438Z,47.80
2017-12-30T08:34:16.308Z,47.20
2017-12-30T08:36:44.846Z,42.10
2017-12-30T08:39:12.690Z,41.80
2017-12-30T08:41:40.541Z,46.60
2017-12-30T08:44:08.310Z,38.20
2017-12-30T08:46:36.135Z,45.90
2017-12-30T08:49:03.918Z,40.60
2017-12-30T08:51:31.685Z,47.30
2017-12-30T08:53:59.561Z,42.70
2017-12-30T08:56:27.370Z,47.60
2017-12-30T08:58:55.134Z,40.90
2017-12-30T09:01:23.079Z,45.30
2017-12-30T09:03:50.940Z,46.60
2017-12-30T09:06:18.787Z,37.30
2017-12-30T09:08:47.333Z,47.30
2017-12-30T09:11:15.732Z,44.20
2017-12-30T09:13:43.621Z,40.80
2017-12-30T09:16:11.436Z,37.80
2017-12-30T09:18:39.348Z,47.30
2017-12-30T09:21:07.951Z,44.80
2017-12-30T09:23:35.788Z,46.20
2017-12-30T09:26:03.661Z,43.70
2017-12-30T09:28:31.466Z,42.50
2017-12-30T09:31:00.058Z,35.00
2017-12-30T09:33:27.881Z,34.70
2017-12-30T09:35:57.281Z,29.50
2017-12-30T09:38:25.086Z,32.60
2017-12-30T09:40:53.205Z,32.30
2017-12-30T09:43:21.019Z,33.10
2017-12-30T09:45:48.943Z,32.80
2017-12-30T09:48:16.748Z,32.60
2017-12-30T09:50:44.590Z,33.20
2017-12-30T09:53:12.366Z,33.30
2017-12-30T09:55:40.230Z,33.90
2017-12-30T09:58:08.135Z,33.00
2017-12-30T10:00:36.034Z,32.90
2017-12-30T10:03:03.840Z,32.70
2017-12-30T10:05:31.755Z,33.10
2017-12-30T10:07:59.585Z,33.10
2017-12-30T10:10:27.384Z,32.70
2017-12-30T10:12:55.130Z,33.10
2017-12-30T10:15:22.969Z,32.90
2017-12-30T10:17:50.775Z,35.60
2017-12-30T10:20:18.507Z,40.10
2017-12-30T10:22:46.333Z,35.40
2017-12-30T10:25:14.884Z,36.40
2017-12-30T10:27:42.660Z,36.30
2017-12-30T10:30:10.478Z,38.80
2017-12-30T10:32:38.349Z,38.60
2017-12-30T10:35:06.194Z,39.60
2017-12-30T10:37:34.035Z,37.70
2017-12-30T10:40:05.621Z,45.40
2017-12-30T10:42:33.396Z,37.90
2017-12-30T10:45:01.215Z,36.30
2017-12-30T10:47:28.977Z,37.70
2017-12-30T10:49:58.086Z,35.60
2017-12-30T10:52:25.868Z,58.70
2017-12-30T10:54:54.594Z,44.60
2017-12-30T10:57:22.421Z,43.40
2017-12-30T10:59:50.816Z,32.80
2017-12-30T11:02:21.381Z,29.10
2017-12-30T11:04:55.255Z,29.00
2017-12-30T11:07:43.017Z,33.20
2017-12-30T11:10:11.899Z,28.20
2017-12-30T11:12:48.261Z,35.20
2017-12-30T11:15:16.152Z,29.90
2017-12-30T11:17:44.027Z,42.30
2017-12-30T11:20:19.279Z,30.00
2017-12-30T11:22:47.137Z,30.00
2017-12-30T11:25:14.987Z,37.60
2017-12-30T11:27:42.788Z,31.60
2017-12-30T11:30:10.580Z,31.50
2017-12-30T11:32:38.355Z,31.30
2017-12-30T11:35:06.204Z,32.80
2017-12-30T11:37:42.264Z,31.30
2017-12-30T11:40:10.033Z,39.10
2017-12-30T11:42:37.841Z,35.10
2017-12-30T11:45:06.381Z,32.20
2017-12-30T11:47:34.196Z,32.20
2017-12-30T11:50:01.988Z,33.70
2017-12-30T11:52:29.803Z,36.50
2017-12-30T11:54:57.696Z,32.20
2017-12-30T11:57:25.501Z,32.00
2017-12-30T11:59:53.306Z,38.30
2017-12-30T12:02:21.120Z,41.70
2017-12-30T12:04:48.934Z,32.90
2017-12-30T12:07:17.102Z,34.90
2017-12-30T12:09:44.888Z,32.50
2017-12-30T12:12:12.763Z,34.70
2017-12-30T12:14:41.577Z,33.00
2017-12-30T12:17:09.493Z,33.10
2017-12-30T12:19:37.322Z,32.70
2017-12-30T12:22:06.047Z,35.90
2017-12-30T12:24:34.014Z,34.80
2017-12-30T12:27:02.635Z,35.10
2017-12-30T12:29:30.537Z,35.00
2017-12-30T12:31:58.886Z,35.70
2017-12-30T12:34:28.120Z,35.60
2017-12-30T12:36:55.916Z,35.50
2017-12-30T12:39:23.840Z,36.10
2017-12-30T12:41:51.643Z,36.20
2017-12-30T12:44:19.506Z,35.50
2017-12-30T12:46:47.364Z,35.40
2017-12-30T12:49:16.190Z,34.80
2017-12-30T12:51:44.104Z,39.00
2017-12-30T12:54:13.078Z,36.50
2017-12-30T12:56:41.742Z,35.10
2017-12-30T12:59:09.635Z,35.00
2017-12-30T13:01:37.492Z,35.40
2017-12-30T13:04:08.133Z,34.90
2017-12-30T13:06:36.002Z,35.00
2017-12-30T13:09:03.964Z,44.60
2017-12-30T13:11:31.816Z,34.80
2017-12-30T13:13:59.632Z,34.00
2017-12-30T13:16:28.190Z,33.70
2017-12-30T13:18:55.975Z,33.70
2017-12-30T13:21:24.550Z,33.70
2017-12-30T13:23:52.372Z,33.60
2017-12-30T13:26:20.388Z,32.50
2017-12-30T13:28:48.270Z,32.90
2017-12-30T13:31:16.133Z,32.30
2017-12-30T13:33:44.013Z,32.00
2017-12-30T13:36:11.806Z,30.70
2017-12-30T13:38:39.630Z,30.50
2017-12-30T13:41:07.737Z,30.90
2017-12-30T13:43:36.549Z,30.70
2017-12-30T13:46:04.384Z,31.40
2017-12-30T13:48:32.209Z,41.50
2017-12-30T13:51:00.005Z,30.30
2017-12-30T13:53:27.858Z,29.70
2017-12-30T13:55:55.836Z,29.60
2017-12-30T13:58:23.694Z,28.50
2017-12-30T14:00:51.514Z,29.00
2017-12-30T14:03:20.052Z,27.60
2017-12-30T14:05:47.914Z,27.50
2017-12-30T14:08:15.697Z,28.30
2017-12-30T14:10:43.515Z,27.70
2017-12-30T14:13:11.379Z,28.20
2017-12-30T14:15:39.213Z,27.20
2017-12-30T14:18:07.017Z,27.00
2017-12-30T14:20:34.915Z,27.20
2017-12-30T14:23:02.798Z,29.80
2017-12-30T14:25:31.370Z,27.20
2017-12-30T14:27:59.212Z,27.10
2017-12-30T14:30:27.011Z,28.40
2017-12-30T14:32:54.828Z,28.40
2017-12-30T14:35:22.601Z,27.80
2017-12-30T14:37:50.401Z,28.10
2017-12-30T14:40:18.226Z,28.90
2017-12-30T14:42:46.803Z,29.30
2017-12-30T14:45:15.454Z,29.20
2017-12-30T14:47:43.280Z,29.70
2017-12-30T14:50:11.167Z,29.60
2017-12-30T14:52:38.977Z,29.60
2017-12-30T14:55:06.765Z,29.00
2017-12-30T14:57:34.597Z,29.70
2017-12-30T15:00:02.478Z,29.80
2017-12-30T15:02:30.231Z,29.80
2017-12-30T15:04:57.999Z,30.00
2017-12-30T15:07:25.806Z,29.40
2017-12-30T15:09:54.391Z,30.60
2017-12-30T15:12:23.000Z,31.00
2017-12-30T15:14:50.829Z,31.00
2017-12-30T15:17:18.649Z,31.60
2017-12-30T15:19:46.399Z,31.90
2017-12-30T15:22:14.155Z,32.80
2017-12-30T15:24:41.993Z,32.20
2017-12-30T15:27:09.832Z,32.30
2017-12-30T15:29:37.566Z,32.70
2017-12-30T15:32:06.103Z,33.70
2017-12-30T15:34:33.858Z,33.70
2017-12-30T15:39:34.002Z,34.30
2017-12-30T15:42:02.532Z,34.80
2017-12-30T15:44:32.104Z,35.40
2017-12-30T15:46:59.923Z,35.30
2017-12-30T15:49:27.811Z,35.00
2017-12-30T15:51:55.685Z,35.60
2017-12-30T15:54:23.541Z,35.90
2017-12-30T15:56:51.424Z,36.40
2017-12-30T15:59:19.219Z,36.30
2017-12-30T16:01:47.863Z,36.20
2017-12-30T16:04:15.798Z,36.30
2017-12-30T16:06:45.855Z,56.10
2017-12-30T16:09:13.707Z,56.00
2017-12-30T16:11:41.535Z,53.70
2017-12-30T16:14:09.453Z,51.70
2017-12-30T16:16:38.071Z,50.10
2017-12-30T16:19:06.065Z,49.00
2017-12-30T16:21:33.912Z,49.00
2017-12-30T16:24:01.880Z,47.80
2017-12-30T16:26:29.740Z,47.50
2017-12-30T16:28:57.713Z,47.00
2017-12-30T16:31:26.578Z,46.70
2017-12-30T16:33:55.223Z,46.40
2017-12-30T16:36:23.791Z,46.30
2017-12-30T16:38:51.598Z,46.00
2017-12-30T16:41:23.232Z,45.90
2017-12-30T16:43:51.121Z,45.70
2017-12-30T16:46:19.019Z,45.40
2017-12-30T16:48:46.948Z,45.30
2017-12-30T16:51:14.822Z,45.20
2017-12-30T16:53:42.651Z,45.10
2017-12-30T16:56:10.579Z,45.00
2017-12-30T16:58:38.406Z,44.90
2017-12-30T17:01:06.271Z,44.70
2017-12-30T17:03:34.122Z,44.60
2017-12-30T17:06:01.959Z,44.60
2017-12-30T17:08:29.838Z,44.40
2017-12-30T17:10:57.645Z,44.30
2017-12-30T17:13:25.484Z,44.40
2017-12-30T17:15:53.317Z,44.40
2017-12-30T17:18:21.908Z,44.70
2017-12-30T17:20:49.706Z,44.50
2017-12-30T17:23:17.495Z,44.50
2017-12-30T17:25:45.294Z,44.50
2017-12-30T17:28:13.192Z,44.50
2017-12-30T17:30:41.199Z,44.60
2017-12-30T17:33:09.074Z,44.60
2017-12-30T17:35:37.766Z,44.70
2017-12-30T17:38:05.589Z,44.90
2017-12-30T17:40:33.425Z,45.00
2017-12-30T17:43:01.296Z,44.90
2017-12-30T17:45:29.306Z,45.00
2017-12-30T17:47:58.971Z,45.00
2017-12-30T17:50:28.591Z,44.90
2017-12-30T17:52:56.455Z,44.90
2017-12-30T17:55:24.357Z,45.00
2017-12-30T17:57:52.193Z,45.00
2017-12-30T18:00:20.024Z,45.10
2017-12-30T18:02:47.894Z,45.00
2017-12-30T18:05:15.763Z,45.00
2017-12-30T18:07:43.665Z,45.10
2017-12-30T18:10:11.542Z,45.00
2017-12-30T18:12:39.418Z,44.90
2017-12-30T18:15:07.336Z,45.10
2017-12-30T18:17:35.229Z,44.90
2017-12-30T18:20:03.135Z,44.90
2017-12-30T18:22:31.009Z,45.10
2017-12-30T18:24:59.614Z,45.10
2017-12-30T18:27:27.493Z,45.10
2017-12-30T18:29:55.320Z,45.20
2017-12-30T18:32:23.186Z,45.20
2017-12-30T18:34:51.032Z,45.20
2017-12-30T18:37:18.885Z,45.00
2017-12-30T18:39:47.677Z,44.80
2017-12-30T18:42:15.548Z,44.90
2017-12-30T18:44:43.369Z,44.70
2017-12-30T18:47:12.004Z,44.40
2017-12-30T18:49:39.824Z,44.40
2017-12-30T18:52:07.687Z,44.30
2017-12-30T18:54:35.589Z,44.20
2017-12-30T18:57:03.454Z,44.10
2017-12-30T18:59:31.330Z,43.90
2017-12-30T19:01:59.137Z,43.90
2017-12-30T19:04:27.086Z,44.00
2017-12-30T19:06:55.018Z,43.70
2017-12-30T19:09:23.772Z,43.70
2017-12-30T19:11:51.699Z,43.70
2017-12-30T19:14:19.549Z,35.50
2017-12-30T19:16:47.488Z,45.10
2017-12-30T19:19:16.333Z,44.70
2017-12-30T19:21:44.167Z,44.30
2017-12-30T19:24:12.794Z,43.70
2017-12-30T19:26:40.628Z,43.70
2017-12-30T19:29:08.507Z,43.70
2017-12-30T19:31:36.398Z,43.60
2017-12-30T19:34:04.299Z,43.60
2017-12-30T19:36:32.147Z,43.70
2017-12-30T19:39:00.574Z,43.70
2017-12-30T19:41:32.541Z,43.60
2017-12-30T19:44:00.519Z,43.80
2017-12-30T19:46:29.238Z,43.90
2017-12-30T19:48:57.690Z,43.90
2017-12-30T19:51:27.013Z,43.90
2017-12-30T19:53:56.018Z,43.80
2017-12-30T19:56:23.895Z,44.10
2017-12-30T19:58:52.616Z,44.30
2017-12-30T20:01:20.856Z,44.30
2017-12-30T20:03:49.179Z,44.40
2017-12-30T20:06:19.112Z,44.50
2017-12-30T20:08:47.166Z,44.50
2017-12-30T20:11:15.994Z,44.60
2017-12-30T20:13:43.879Z,44.50
2017-12-30T20:16:15.113Z,44.50
2017-12-30T20:18:43.021Z,44.50
2017-12-30T20:21:10.914Z,44.50
2017-12-30T20:23:39.628Z,44.50
2017-12-30T20:26:36.276Z,44.50
2017-12-30T20:29:07.105Z,44.50
2017-12-30T20:31:35.716Z,44.50
2017-12-30T20:34:03.514Z,44.50
2017-12-30T20:36:31.330Z,44.30
2017-12-30T20:38:59.807Z,44.40
2017-12-30T20:41:27.612Z,44.20
2017-12-30T20:43:55.437Z,44.20
2017-12-30T20:46:24.266Z,44.40
2017-12-30T20:48:52.066Z,44.30
2017-12-30T20:51:19.910Z,44.20
2017-12-30T20:53:48.543Z,44.70
2017-12-30T20:56:16.373Z,44.00
2017-12-30T20:58:44.194Z,43.90
2017-12-30T21:01:12.837Z,43.80
2017-12-30T21:03:40.633Z,43.60
2017-12-30T21:06:08.475Z,43.70
2017-12-30T21:08:36.490Z,43.50
2017-12-30T21:11:04.387Z,43.50
2017-12-30T21:13:32.275Z,43.40
2017-12-30T21:16:00.129Z,43.30
2017-12-30T21:18:28.018Z,40.10
2017-12-30T21:20:55.852Z,43.20
2017-12-30T21:23:23.656Z,43.10
2017-12-30T21:25:51.549Z,43.00
2017-12-30T21:28:19.351Z,43.00
2017-12-30T21:30:48.413Z,43.00
2017-12-30T21:33:16.233Z,43.00
2017-12-30T21:35:44.053Z,43.10
2017-12-30T21:38:11.883Z,43.10
2017-12-30T21:40:40.317Z,43.10
2017-12-30T21:43:08.121Z,43.20
2017-12-30T21:45:35.934Z,43.20
2017-12-30T21:48:03.804Z,43.30
2017-12-30T21:50:31.644Z,43.30
2017-12-30T21:52:59.588Z,43.30
2017-12-30T21:55:27.514Z,43.40
2017-12-30T21:57:56.590Z,43.40
2017-12-30T22:00:24.458Z,43.40
2017-12-30T22:02:52.329Z,43.40
2017-12-30T22:05:20.185Z,43.50
2017-12-30T22:07:48.060Z,43.50
2017-12-30T22:10:15.892Z,43.50
2017-12-30T22:12:43.872Z,44.10
2017-12-30T22:15:11.772Z,43.60
2017-12-30T22:17:39.614Z,43.70
2017-12-30T22:20:07.435Z,43.80
2017-12-30T22:22:35.299Z,43.90
2017-12-30T22:25:03.186Z,44.00
2017-12-30T22:27:31.087Z,44.10
2017-12-30T22:29:58.981Z,44.10
2017-12-30T22:32:26.896Z,44.20
2017-12-30T22:34:54.812Z,44.20
2017-12-30T22:37:22.760Z,44.30
2017-12-30T22:39:50.602Z,44.30
2017-12-30T22:42:19.250Z,45.00
2017-12-30T22:44:47.064Z,44.30
2017-12-30T22:47:15.635Z,44.40
2017-12-30T22:49:43.486Z,44.40
2017-12-30T22:52:11.420Z,44.50
2017-12-30T22:54:39.374Z,44.50
2017-12-30T22:57:07.468Z,44.50
2017-12-30T22:59:36.474Z,44.40
2017-12-30T23:02:04.919Z,44.30
2017-12-30T23:04:32.766Z,44.30
2017-12-30T23:07:00.840Z,44.30
2017-12-30T23:09:28.891Z,45.00
2017-12-30T23:11:57.540Z,44.30
2017-12-30T23:14:25.335Z,44.30
2017-12-30T23:16:53.743Z,44.10
2017-12-30T23:19:22.427Z,44.00
2017-12-30T23:21:50.265Z,44.10
2017-12-30T23:24:18.975Z,44.00
2017-12-30T23:26:48.808Z,44.00
2017-12-30T23:29:17.433Z,43.90
2017-12-30T23:31:46.868Z,43.90
2017-12-30T23:34:14.830Z,43.70
2017-12-30T23:36:44.630Z,43.80
2017-12-30T23:39:13.679Z,43.90
2017-12-30T23:41:42.675Z,43.80
2017-12-30T23:44:10.604Z,43.80
2017-12-30T23:46:39.235Z,43.80
2017-12-30T23:49:07.787Z,43.70
2017-12-30T23:51:36.314Z,43.70
2017-12-30T23:54:04.242Z,43.70
2017-12-30T23:56:32.721Z,43.70
2017-12-30T23:59:01.607Z,43.80
